GCXOGCTS

Guest
Details From GCXO - Tenerife Norte - Los Rodeos
To GCTS - Tenerife Sur
Flight Number -
Tags Generated
Created
Modified
Stats Distance 30 nm / 55 km
Max Altitude 0 ft / 0 m
Waypoints 2
Social Downloads 7
Likes 0
Share VATSIM

Download

Looking for another format? Having issues loading an existing format? Contact us
Advertisement - Login to hide

Notes

Generated

Route

GCXO GCTS

ID Type Via Altitude Latitude Longitude Leg Dist Tot Dist Heading (true) Name
O GCXO APT - 0 ft / 0 m 28.48804˚ -16.35776˚ - 0 nm - -
O GCTS APT - 0 ft / 0 m 28.03920˚ -16.58764˚ 29 nm 29 nm 204° / 204° -

Altitude Profile

Advertisement - Login to hide

GCXO

Details ICAO GCXO (TFN)
Name Tenerife Norte - Los Rodeos
Region Canary Islands
Timezone Atlantic/Canary (UTC+1.0)
Stats Elevation 2,076 ft / 633 m (AMSL)
Location 28.482656° -16.341541°
Runways 1
Magnetic Variation 4.952° W

METAR

GCXO 222300Z AUTO 31007KT 280V010 9999 0150NW R12/0400D BCFG VV001 14/14 Q1020

Decode

TAF

TAF AMD GCXO 222132Z 2221/2321 32011KT 9999 BKN012 TX18/2314Z TN11/2305Z TEMPO 2221/2309 4000 DZRA BCFG BKN006 PROB30 TEMPO 2221/2309 1000 RA BCFG BKN005 PROB30 TEMPO 2221/2308 0500 DZRA BCFG BKN002

Decode

Departure Runways

ID Width Length Bearing (true) Bearing (mag) Surface Threshold Offset Overrun Length
12 148 ft / 45 m 11,165 ft / 3,403 m 110.67° 115.62° Asphalt 0 ft / 0 m 197 ft / 60 m
30 148 ft / 45 m 11,165 ft / 3,403 m 290.69° 295.64° Asphalt 0 ft / 0 m 197 ft / 60 m

GCTS

Details ICAO GCTS (TFS)
Name Tenerife Sur
Region Canary Islands
Timezone Atlantic/Canary (UTC+1.0)
Stats Elevation 209 ft / 64 m (AMSL)
Location 28.044475° -16.572488°
Runways 1
Magnetic Variation 5.066° W

METAR

GCTS 222300Z 11004KT 080V160 9999 FEW010 19/17 Q1018 NOSIG

Decode

TAF

TAF GCTS 222000Z 2221/2321 05008KT 9999 SCT025 TX24/2314Z TN16/2305Z BECMG 2309/2311 16010KT PROB30 TEMPO 2221/2309 DZRA BECMG 2317/2319 09009KT

Decode

Destination Runways

ID Width Length Bearing (true) Bearing (mag) Surface Threshold Offset Overrun Length
08 148 ft / 45 m 10,489 ft / 3,197 m 68.47° 73.54° Asphalt 0 ft / 0 m 0 ft / 0 m
26 148 ft / 45 m 10,489 ft / 3,197 m 248.49° 253.56° Asphalt 0 ft / 0 m 0 ft / 0 m

Approach Navaids

Runway Type Ident Frequency Range Bearing (true) Bearing (mag) Slope Elevation
08 Localiser TRS 109.70 MHz 18 nm / 33 km 68.49° 73.56° - 187 ft / 57 m (AMSL)
08 Glidescope TRS 109.70 MHz 10 nm / 19 km 68.48° 73.55° 3.00° 209 ft / 64 m (AMSL)
26 Localiser ISUR 110.90 MHz 18 nm / 33 km 248.52° 253.58° - 209 ft / 64 m (AMSL)
26 Glidescope ISUR 110.90 MHz 10 nm / 19 km 248.48° 253.55° 3.00° 236 ft / 72 m (AMSL)
26 DME ISUR 110.90 MHz 18 nm / 33 km - - - 236 ft / 72 m (AMSL)

Popular Alternatives